Time;durP1;ratioP1;P1;durP2;ratioP2;P2;SDS_P1;SDS_P2;PMS_P1;PMS_P2;Temp;Humidity;BMP_temperature;BMP_pressure;BME280_temperature;BME280_humidity;BME280_pressure;Samples;Min_cycle;Max_cycle;Signal;HPM_P1;HPM_P2
2023/07/24 00:02:23;;;;;;;3.17;1.33;;;;;;;21.37;65.39;100428.19;5000219;28;20041;-51
2023/07/24 00:04:48;;;;;;;1.33;1.17;;;;;;;21.36;65.56;100426.47;4998321;28;20034;-52
2023/07/24 00:07:14;;;;;;;1.27;1.10;;;;;;;21.37;65.66;100418.19;5000689;28;20109;-52
2023/07/24 00:09:39;;;;;;;1.40;1.30;;;;;;;21.36;65.19;100421.94;5005318;28;20060;-53
2023/07/24 00:12:05;;;;;;;1.60;1.20;;;;;;;21.36;65.01;100411.09;5001856;28;20068;-52
2023/07/24 00:14:30;;;;;;;1.30;1.02;;;;;;;21.35;64.93;100414.81;5000457;28;20037;-53
2023/07/24 00:16:55;;;;;;;1.98;0.90;;;;;;;21.35;64.93;100414.81;5002855;28;20041;-52
2023/07/24 00:19:21;;;;;;;1.02;0.90;;;;;;;21.34;64.53;100413.09;5002371;28;20041;-52
2023/07/24 00:21:46;;;;;;;1.13;1.05;;;;;;;21.33;64.63;100408.72;5002256;28;20037;-53
2023/07/24 00:24:12;;;;;;;2.22;1.15;;;;;;;21.33;65.10;100405.19;5002636;28;20116;-53
2023/07/24 00:26:37;;;;;;;1.38;1.17;;;;;;;21.33;65.73;100397.91;5002290;28;20054;-51
2023/07/24 00:29:02;;;;;;;1.15;1.13;;;;;;;21.34;65.28;100396.84;5003260;28;20030;-53
2023/07/24 00:31:28;;;;;;;1.30;1.20;;;;;;;21.32;64.70;100388.06;5002701;28;20117;-51
2023/07/24 00:33:53;;;;;;;1.42;1.23;;;;;;;21.32;64.99;100387.25;4998795;28;20172;-52
2023/07/24 00:36:18;;;;;;;1.23;1.13;;;;;;;21.32;64.77;100388.06;5002943;28;20041;-53
2023/07/24 00:38:44;;;;;;;1.20;0.90;;;;;;;21.32;64.72;100376.41;5002557;28;20069;-53
2023/07/24 00:41:09;;;;;;;2.28;1.40;;;;;;;21.31;65.06;100378.28;5001362;28;20030;-53
2023/07/24 00:43:35;;;;;;;2.58;1.30;;;;;;;21.32;64.60;100384.53;5001722;28;20042;-52
2023/07/24 00:46:00;;;;;;;1.75;1.30;;;;;;;21.30;64.48;100379.28;5002026;28;20061;-52
2023/07/24 00:48:26;;;;;;;2.10;0.90;;;;;;;21.29;64.98;100373.03;5001632;28;20125;-51
2023/07/24 00:50:52;;;;;;;3.92;1.10;;;;;;;21.30;65.01;100368.47;5001827;28;20492;-51
2023/07/24 00:53:19;;;;;;;2.33;1.30;;;;;;;21.29;64.51;100374.91;5004121;28;20048;-52
2023/07/24 00:55:45;;;;;;;2.97;1.30;;;;;;;21.29;64.31;100364.91;4997328;28;20038;-52
2023/07/24 00:58:11;;;;;;;1.55;1.10;;;;;;;21.27;64.48;100364.25;5001606;28;20502;-51
2023/07/24 01:00:38;;;;;;;1.13;1.00;;;;;;;21.27;64.61;100358.00;5001909;28;20030;-53
2023/07/24 01:03:04;;;;;;;1.75;1.10;;;;;;;21.27;64.49;100358.00;5002250;28;20033;-52
2023/07/24 01:05:30;;;;;;;3.35;1.20;;;;;;;21.28;64.39;100365.09;5002150;28;20041;-51
2023/07/24 01:07:55;;;;;;;1.30;1.20;;;;;;;21.27;64.44;100355.31;5001603;28;20113;-52
2023/07/24 01:10:21;;;;;;;1.23;0.98;;;;;;;21.26;64.29;100340.91;5000791;28;20037;-52
2023/07/24 01:13:01;;;;;;;1.50;1.10;;;;;;;21.28;64.52;100348.84;5000947;28;20122;-53
2023/07/24 01:15:29;;;;;;;2.45;1.00;;;;;;;21.28;64.56;100343.44;4999220;28;20030;-52
2023/07/24 01:18:10;;;;;;;1.13;1.02;;;;;;;21.27;63.83;100342.59;5002344;28;20046;-52
2023/07/24 01:20:53;;;;;;;1.20;1.10;;;;;;;21.28;63.93;100343.44;4999906;28;20033;-52
2023/07/24 01:23:50;;;;;;;3.80;1.20;;;;;;;21.29;63.94;100340.53;4999287;28;20380;-52
2023/07/24 01:26:16;;;;;;;1.20;1.10;;;;;;;21.28;63.93;100338.00;4997666;28;20129;-50
2023/07/24 01:28:42;;;;;;;1.92;1.40;;;;;;;21.26;63.80;100335.47;5001338;28;20126;-52
2023/07/24 01:31:07;;;;;;;1.23;0.98;;;;;;;21.25;64.03;100339.22;5000423;28;20026;-52
2023/07/24 01:33:35;;;;;;;1.77;1.38;;;;;;;21.25;64.21;100339.22;5004059;28;20033;-53
2023/07/24 01:36:02;;;;;;;1.23;1.10;;;;;;;21.25;64.14;100327.56;5001094;28;20026;-52
2023/07/24 01:38:29;;;;;;;1.20;1.10;;;;;;;21.24;64.29;100326.69;4998768;28;20038;-52
2023/07/24 01:40:56;;;;;;;2.08;1.42;;;;;;;21.25;64.02;100330.28;5001287;28;20061;-53
2023/07/24 01:43:22;;;;;;;1.10;1.00;;;;;;;21.23;63.84;100325.03;5001268;28;20061;-52
2023/07/24 01:45:47;;;;;;;1.40;1.30;;;;;;;21.25;63.78;100327.56;5000863;28;20029;-52
2023/07/24 01:48:12;;;;;;;1.42;0.90;;;;;;;21.24;63.73;100324.00;5000366;28;20542;-52
2023/07/24 01:50:38;;;;;;;1.25;1.10;;;;;;;21.25;64.23;100322.16;5000391;28;20445;-52
2023/07/24 01:53:03;;;;;;;0.90;0.90;;;;;;;21.24;64.13;100306.91;5001827;28;20030;-52
2023/07/24 01:55:28;;;;;;;0.98;0.90;;;;;;;21.25;63.56;100303.19;4995370;28;20042;-52
2023/07/24 01:57:54;;;;;;;1.00;0.90;;;;;;;21.24;63.81;100305.03;4996274;28;20030;-52
2023/07/24 02:00:19;;;;;;;1.98;1.38;;;;;;;21.24;63.75;100302.31;5000282;28;20038;-51
2023/07/24 02:02:45;;;;;;;2.75;1.40;;;;;;;21.23;63.77;100295.25;5000908;28;20483;-53
2023/07/24 02:05:10;;;;;;;1.50;1.40;;;;;;;21.23;63.80;100292.53;4996567;28;20026;-51
2023/07/24 02:07:36;;;;;;;1.58;1.20;;;;;;;21.23;63.32;100292.53;5003243;28;20431;-52
2023/07/24 02:10:01;;;;;;;1.50;1.00;;;;;;;21.22;63.38;100290.84;5002707;28;20026;-53
2023/07/24 02:12:27;;;;;;;1.77;1.10;;;;;;;21.23;63.82;100287.13;5000392;28;20084;-53
2023/07/24 02:14:53;;;;;;;3.03;1.30;;;;;;;21.23;63.72;100284.41;5000152;28;20026;-52
2023/07/24 02:17:18;;;;;;;2.78;1.27;;;;;;;21.23;63.96;100289.00;4999723;28;20034;-53
2023/07/24 02:19:44;;;;;;;2.08;1.30;;;;;;;21.23;63.55;100278.16;4997931;28;20084;-54
2023/07/24 02:22:10;;;;;;;1.35;1.20;;;;;;;21.23;63.88;100284.41;5000025;28;20026;-53
2023/07/24 02:24:35;;;;;;;1.42;1.20;;;;;;;21.23;64.02;100281.72;5000115;28;20038;-52
2023/07/24 02:27:01;;;;;;;1.33;1.20;;;;;;;21.23;63.38;100283.59;4995589;28;20421;-53
2023/07/24 02:29:26;;;;;;;1.58;1.05;;;;;;;21.24;63.19;100282.53;4999149;28;20038;-52
2023/07/24 02:31:53;;;;;;;2.03;1.48;;;;;;;21.22;63.91;100280.00;5000127;28;20089;-52
2023/07/24 02:34:19;;;;;;;1.10;1.00;;;;;;;21.23;63.43;100272.75;5001054;28;20490;-53
2023/07/24 02:36:44;;;;;;;1.35;1.25;;;;;;;21.22;63.53;100271.88;4999885;28;20125;-52
2023/07/24 02:39:10;;;;;;;2.13;1.48;;;;;;;21.24;63.10;100277.13;5000113;28;20388;-52
2023/07/24 02:41:35;;;;;;;1.55;1.42;;;;;;;21.24;63.33;100269.00;4998977;28;20035;-52
2023/07/24 02:44:03;;;;;;;1.63;1.45;;;;;;;21.25;63.06;100278.81;5000423;28;20035;-53
2023/07/24 02:46:30;;;;;;;1.38;1.10;;;;;;;21.24;63.57;100296.06;5000447;28;20061;-52
2023/07/24 02:48:55;;;;;;;2.00;1.17;;;;;;;21.25;63.52;100293.19;4999218;28;20046;-52
2023/07/24 02:51:21;;;;;;;1.70;1.15;;;;;;;21.25;62.73;100284.25;4998194;28;20037;-52
2023/07/24 02:53:46;;;;;;;1.40;1.17;;;;;;;21.25;63.09;100278.81;4999960;28;20515;-52
2023/07/24 02:56:11;;;;;;;1.60;1.30;;;;;;;21.24;63.54;100264.41;4998783;28;20117;-53
2023/07/24 02:58:37;;;;;;;1.60;1.33;;;;;;;21.24;63.33;100255.47;4998273;28;20041;-53
2023/07/24 03:01:05;;;;;;;1.70;1.30;;;;;;;21.23;63.26;100267.34;5000488;28;20034;-53
2023/07/24 03:03:31;;;;;;;1.48;1.23;;;;;;;21.22;63.57;100269.19;4998511;28;20029;-53
2023/07/24 03:05:56;;;;;;;1.58;1.13;;;;;;;21.22;63.71;100279.19;4994940;28;20053;-53
2023/07/24 03:08:21;;;;;;;1.58;1.33;;;;;;;21.23;63.46;100272.75;4999878;28;20046;-53
2023/07/24 03:10:47;;;;;;;2.25;1.40;;;;;;;21.23;63.45;100259.22;4999124;28;20038;-53
2023/07/24 03:13:12;;;;;;;2.22;1.50;;;;;;;21.23;63.27;100253.78;4999379;28;20038;-52
2023/07/24 03:15:37;;;;;;;1.65;1.27;;;;;;;21.21;62.99;100256.69;4996981;28;20046;-52
2023/07/24 03:18:03;;;;;;;3.75;1.23;;;;;;;21.21;63.71;100251.25;5000722;28;20034;-53
2023/07/24 03:20:28;;;;;;;1.17;1.08;;;;;;;21.22;63.47;100262.94;4999558;28;20041;-52
2023/07/24 03:22:53;;;;;;;1.52;1.30;;;;;;;21.22;63.73;100265.63;4999702;28;20480;-53
2023/07/24 03:25:19;;;;;;;1.45;1.35;;;;;;;21.21;63.21;100272.06;4999973;28;20211;-53
2023/07/24 03:27:44;;;;;;;2.35;1.52;;;;;;;21.21;63.43;100269.34;4999225;28;20038;-53
2023/07/24 03:30:10;;;;;;;1.63;1.27;;;;;;;21.20;63.31;100260.41;4999625;28;20056;-52
2023/07/24 03:32:38;;;;;;;2.08;1.60;;;;;;;21.20;63.38;100256.84;4998246;28;20100;-53
2023/07/24 03:35:06;;;;;;;1.63;1.40;;;;;;;21.19;63.36;100253.31;5000866;28;20033;-53
2023/07/24 03:37:31;;;;;;;2.45;1.45;;;;;;;21.19;63.32;100253.31;5000013;28;20033;-52
2023/07/24 03:39:57;;;;;;;1.00;0.85;;;;;;;21.19;63.18;100252.44;5000132;28;20033;-51
2023/07/24 03:42:27;;;;;;;2.17;1.42;;;;;;;21.19;63.75;100252.44;4999214;28;20036;-53
2023/07/24 03:44:53;;;;;;;1.87;1.30;;;;;;;21.19;63.20;100241.63;5003386;28;20061;-53
2023/07/24 03:47:19;;;;;;;1.60;1.50;;;;;;;21.18;63.55;100246.19;5003586;28;20334;-53
2023/07/24 03:49:44;;;;;;;2.03;1.60;;;;;;;21.19;63.67;100238.91;5002550;28;20033;-53
2023/07/24 03:52:09;;;;;;;1.95;1.70;;;;;;;21.19;63.14;100244.31;5002902;28;20041;-53
2023/07/24 03:54:35;;;;;;;1.35;1.25;;;;;;;21.19;63.37;100249.75;5018993;28;20041;-53
2023/07/24 03:57:00;;;;;;;2.58;1.40;;;;;;;21.18;63.72;100250.78;5002918;28;20034;-53
2023/07/24 03:59:25;;;;;;;1.42;1.33;;;;;;;21.19;63.22;100252.44;5001671;28;20038;-53
2023/07/24 04:01:51;;;;;;;2.33;1.70;;;;;;;21.19;63.62;100250.59;5005188;28;20038;-52
2023/07/24 04:04:16;;;;;;;1.42;1.20;;;;;;;21.19;63.54;100255.16;5002287;28;20034;-52
2023/07/24 04:06:41;;;;;;;1.40;1.30;;;;;;;21.18;63.49;100251.63;5002443;28;20046;-53
2023/07/24 04:09:07;;;;;;;1.73;1.42;;;;;;;21.18;63.46;100248.91;5003105;28;20069;-51
2023/07/24 04:11:32;;;;;;;1.48;1.20;;;;;;;21.17;63.20;100249.09;4995399;28;20030;-53
2023/07/24 04:13:57;;;;;;;1.27;1.10;;;;;;;21.17;63.53;100263.50;5002345;28;20045;-53
2023/07/24 04:16:23;;;;;;;2.35;1.65;;;;;;;21.17;63.26;100260.78;5002647;28;20038;-53
2023/07/24 04:18:48;;;;;;;1.75;1.27;;;;;;;21.18;63.06;100267.03;5001378;28;20037;-53
2023/07/24 04:21:13;;;;;;;1.73;1.27;;;;;;;21.18;63.57;100269.72;4999014;28;20106;-53
2023/07/24 04:23:39;;;;;;;2.17;1.42;;;;;;;21.17;63.19;100255.38;5002743;28;20499;-53
2023/07/24 04:26:04;;;;;;;2.95;1.50;;;;;;;21.17;63.62;100257.22;5002118;28;20050;-53
2023/07/24 04:28:29;;;;;;;1.73;1.50;;;;;;;21.16;63.56;100263.66;5002238;28;20042;-53
2023/07/24 04:30:55;;;;;;;2.80;1.70;;;;;;;21.17;63.34;100270.75;5002617;28;20068;-53
2023/07/24 04:33:20;;;;;;;2.65;1.20;;;;;;;21.17;63.26;100273.44;5001839;28;20037;-53
2023/07/24 04:35:49;;;;;;;1.85;1.58;;;;;;;21.16;63.27;100266.38;5002047;28;20092;-53
2023/07/24 04:38:14;;;;;;;2.08;1.60;;;;;;;21.17;63.62;100268.03;5002427;28;20097;-53
2023/07/24 04:40:43;;;;;;;1.67;1.58;;;;;;;21.16;63.44;100269.06;5001252;28;20034;-51
2023/07/24 04:43:09;;;;;;;2.70;1.60;;;;;;;21.16;63.47;100269.06;5001844;28;20087;-53
2023/07/24 04:45:34;;;;;;;1.40;1.15;;;;;;;21.15;63.55;100272.78;5005272;28;20030;-53
2023/07/24 04:48:00;;;;;;;1.50;1.40;;;;;;;21.16;63.45;100275.31;5002939;28;20825;-53
2023/07/24 04:50:25;;;;;;;1.88;1.15;;;;;;;21.16;63.25;100274.50;5001959;28;20373;-53
2023/07/24 04:52:50;;;;;;;2.72;1.50;;;;;;;21.15;63.51;100265.53;5001130;28;20472;-53
2023/07/24 04:55:16;;;;;;;1.77;1.30;;;;;;;21.15;63.19;100262.84;5000811;28;20387;-53
2023/07/24 04:57:41;;;;;;;1.95;1.50;;;;;;;21.15;63.27;100267.38;5001442;28;20483;-53
2023/07/24 05:00:07;;;;;;;1.60;1.50;;;;;;;21.15;63.47;100270.09;5000866;28;20038;-53
2023/07/24 05:02:32;;;;;;;1.42;1.33;;;;;;;21.14;63.42;100280.09;5001826;28;20057;-52
2023/07/24 05:04:58;;;;;;;2.47;1.90;;;;;;;21.15;63.91;100267.38;5002044;28;20069;-52
2023/07/24 05:07:23;;;;;;;1.55;1.40;;;;;;;21.14;63.55;100263.84;4997909;28;20034;-53
2023/07/24 05:09:48;;;;;;;2.22;1.67;;;;;;;21.14;63.16;100263.84;5001549;28;20038;-53
2023/07/24 05:12:14;;;;;;;1.73;1.48;;;;;;;21.14;63.00;100263.84;4999322;28;20026;-51
2023/07/24 05:14:39;;;;;;;1.65;1.55;;;;;;;21.14;63.34;100268.41;5003547;28;20036;-53
2023/07/24 05:17:04;;;;;;;2.80;1.70;;;;;;;21.14;63.33;100274.66;5001369;28;20504;-53
2023/07/24 05:19:30;;;;;;;2.38;1.88;;;;;;;21.14;63.64;100274.66;5001850;28;20397;-52
2023/07/24 05:21:55;;;;;;;1.50;1.40;;;;;;;21.15;63.13;100280.91;5001164;28;20038;-53
2023/07/24 05:24:20;;;;;;;2.03;1.83;;;;;;;21.13;63.09;100278.38;5001437;28;20465;-51
2023/07/24 05:26:46;;;;;;;1.77;1.67;;;;;;;21.14;63.16;100279.25;5001458;28;20057;-51
2023/07/24 05:29:11;;;;;;;2.17;1.50;;;;;;;21.14;63.34;100281.97;4999588;28;20030;-52
2023/07/24 05:31:37;;;;;;;2.20;1.63;;;;;;;21.13;63.65;100286.50;5001720;28;20069;-52
2023/07/24 05:34:03;;;;;;;2.67;1.73;;;;;;;21.14;63.48;100281.97;5001310;28;20033;-52
2023/07/24 05:36:29;;;;;;;2.35;1.55;;;;;;;21.13;63.20;100286.50;5000636;28;20056;-53
2023/07/24 05:38:54;;;;;;;2.28;1.83;;;;;;;21.14;63.35;100290.06;5001040;28;20030;-53
2023/07/24 05:41:20;;;;;;;2.13;1.90;;;;;;;21.14;63.27;100290.06;5001144;28;20097;-53
2023/07/24 05:43:45;;;;;;;1.67;1.58;;;;;;;21.13;63.22;100283.78;4997827;28;20049;-52
2023/07/24 05:46:10;;;;;;;2.42;1.67;;;;;;;21.14;62.51;100288.19;5001732;28;20034;-51
2023/07/24 05:48:36;;;;;;;2.05;1.52;;;;;;;21.13;62.97;100289.22;5003416;28;20034;-53
2023/07/24 05:51:01;;;;;;;2.90;1.60;;;;;;;21.14;62.71;100287.38;5000441;28;20379;-53
2023/07/24 05:53:26;;;;;;;1.92;1.63;;;;;;;21.13;62.72;100296.50;5000702;28;20048;-52
2023/07/24 05:55:59;;;;;;;1.83;1.70;;;;;;;21.13;63.06;100297.34;5000881;28;20040;-52
2023/07/24 05:58:25;;;;;;;1.70;1.60;;;;;;;21.14;62.69;100298.19;5000398;28;20057;-53
2023/07/24 06:00:50;;;;;;;1.98;1.45;;;;;;;21.15;62.85;100302.56;4999934;28;20464;-52
2023/07/24 06:03:16;;;;;;;1.55;1.45;;;;;;;21.14;62.44;100309.84;4994820;28;20031;-51
2023/07/24 06:05:41;;;;;;;1.85;1.70;;;;;;;21.15;62.87;100306.16;4999380;28;20026;-53
2023/07/24 06:08:08;;;;;;;2.00;1.70;;;;;;;21.14;62.25;100299.03;4997707;28;20497;-52
2023/07/24 06:10:34;;;;;;;1.63;1.40;;;;;;;21.14;62.88;100298.19;4994401;28;20034;-52
2023/07/24 06:12:59;;;;;;;1.50;1.40;;;;;;;21.13;62.68;100300.03;4993865;28;20088;-52
2023/07/24 06:15:24;;;;;;;2.97;1.35;;;;;;;21.16;62.27;100304.28;4994858;28;20358;-51
2023/07/24 06:17:50;;;;;;;2.97;1.65;;;;;;;21.15;62.50;100314.25;4992522;28;20034;-52
2023/07/24 06:20:15;;;;;;;1.58;1.48;;;;;;;21.15;62.85;100306.16;4992375;28;20066;-52
2023/07/24 06:22:41;;;;;;;2.60;1.85;;;;;;;21.16;62.38;100313.22;4991808;28;20021;-52
2023/07/24 06:25:07;;;;;;;2.50;1.50;;;;;;;21.16;62.23;100315.94;4998835;28;20045;-52
2023/07/24 06:27:32;;;;;;;2.13;1.60;;;;;;;21.15;62.04;100302.56;4993000;28;20426;-53
2023/07/24 06:29:57;;;;;;;2.03;1.58;;;;;;;21.17;62.19;100304.09;4990820;28;20022;-52
2023/07/24 06:32:23;;;;;;;2.60;1.80;;;;;;;21.17;61.94;100306.81;4991018;28;20110;-59
2023/07/24 06:34:48;;;;;;;2.08;1.88;;;;;;;21.18;61.94;100304.94;4993600;28;20022;-60
2023/07/24 06:37:14;;;;;;;2.38;1.83;;;;;;;21.19;62.17;100301.19;4991922;28;20085;-59
2023/07/24 06:39:39;;;;;;;1.83;1.50;;;;;;;21.18;62.29;100311.19;4994355;28;20089;-51
2023/07/24 06:42:04;;;;;;;2.00;1.80;;;;;;;21.20;61.84;100313.72;4993565;28;20030;-52
2023/07/24 06:44:30;;;;;;;2.30;1.73;;;;;;;21.20;61.86;100303.72;4990508;28;20049;-53
2023/07/24 06:46:55;;;;;;;1.60;1.50;;;;;;;21.23;62.15;100316.06;4992856;28;20080;-52
2023/07/24 06:49:20;;;;;;;2.65;1.92;;;;;;;21.21;61.57;100310.84;5000039;28;20065;-53
2023/07/24 06:51:46;;;;;;;2.10;1.90;;;;;;;21.24;61.64;100312.31;4998621;28;20480;-52
2023/07/24 06:54:11;;;;;;;3.80;1.60;;;;;;;21.23;61.66;100305.25;4999523;28;20045;-53
2023/07/24 06:56:37;;;;;;;2.15;1.65;;;;;;;21.22;61.93;100296.25;4998356;28;20049;-53
2023/07/24 06:59:02;;;;;;;2.42;1.77;;;;;;;21.22;61.96;100300.84;4995830;28;20026;-53
2023/07/24 07:01:27;;;;;;;4.30;2.03;;;;;;;21.22;61.45;100295.41;4997700;28;20034;-53
2023/07/24 07:03:53;;;;;;;3.55;1.70;;;;;;;21.22;61.87;100307.09;5000668;28;20033;-52
2023/07/24 07:06:18;;;;;;;1.60;1.50;;;;;;;21.22;61.44;100306.25;5000844;28;20484;-53
2023/07/24 07:08:44;;;;;;;2.20;1.73;;;;;;;21.22;61.75;100308.97;4995471;28;20041;-51
2023/07/24 07:11:09;;;;;;;2.00;1.70;;;;;;;21.21;62.11;100308.13;5002752;28;20156;-53
2023/07/24 07:13:35;;;;;;;1.80;1.70;;;;;;;21.21;61.83;100309.97;4999055;28;20038;-51
2023/07/24 07:16:00;;;;;;;1.55;1.45;;;;;;;21.20;62.09;100308.31;4998966;28;20444;-53
2023/07/24 07:18:26;;;;;;;2.22;1.90;;;;;;;21.20;61.71;100311.00;5000231;28;20029;-52
2023/07/24 07:20:52;;;;;;;2.13;1.92;;;;;;;21.20;61.43;100316.41;5001982;28;20420;-53
2023/07/24 07:23:18;;;;;;;2.40;1.98;;;;;;;21.21;61.83;100307.25;4998884;28;20038;-53
2023/07/24 07:25:47;;;;;;;3.22;2.28;;;;;;;21.20;61.45;100308.31;4998863;28;20092;-53
2023/07/24 07:28:14;;;;;;;2.15;1.92;;;;;;;21.20;61.52;100302.88;4999610;28;20040;-53
2023/07/24 07:30:40;;;;;;;3.67;1.95;;;;;;;21.19;61.60;100302.06;4994818;28;20105;-52
2023/07/24 07:33:06;;;;;;;2.20;1.92;;;;;;;21.20;61.45;100302.88;4997967;28;20056;-52
2023/07/24 07:35:32;;;;;;;2.20;2.00;;;;;;;21.18;61.76;100300.34;4996714;28;20041;-52
2023/07/24 07:37:58;;;;;;;2.38;2.17;;;;;;;21.19;61.52;100301.19;5003015;28;20022;-51
2023/07/24 07:40:24;;;;;;;2.58;2.20;;;;;;;21.20;61.88;100305.59;5000713;28;20034;-52
2023/07/24 07:42:49;;;;;;;2.42;2.13;;;;;;;21.23;61.75;100302.53;5001714;28;20029;-53
2023/07/24 07:45:17;;;;;;;4.10;2.38;;;;;;;21.23;63.35;100305.25;5003285;28;20401;-53
2023/07/24 07:47:43;;;;;;;4.47;3.05;;;;;;;21.22;63.92;100300.84;5003528;28;20105;-53
2023/07/24 07:50:08;;;;;;;2.97;2.67;;;;;;;21.20;63.77;100297.47;5003357;28;20555;-53
2023/07/24 07:52:34;;;;;;;4.07;3.05;;;;;;;21.18;64.54;100299.50;5001550;28;20029;-52
2023/07/24 07:54:59;;;;;;;3.13;2.83;;;;;;;21.17;64.99;100297.81;5002474;28;20040;-52
2023/07/24 07:57:25;;;;;;;3.15;2.28;;;;;;;21.15;64.58;100298.03;5005772;28;20435;-51
2023/07/24 07:59:50;;;;;;;4.82;3.40;;;;;;;21.14;65.08;100298.19;5001701;28;20037;-48
2023/07/24 08:02:16;;;;;;;3.70;2.53;;;;;;;21.13;65.33;100297.34;5002947;28;20084;-53
2023/07/24 08:04:41;;;;;;;3.60;2.83;;;;;;;21.12;65.54;100297.53;4998176;28;20030;-53
2023/07/24 08:07:06;;;;;;;3.70;2.78;;;;;;;21.11;65.31;100303.97;5002575;28;20483;-53
2023/07/24 08:09:33;;;;;;;4.13;3.15;;;;;;;21.10;65.64;100303.13;5001808;28;20060;-51
2023/07/24 08:11:59;;;;;;;4.90;3.10;;;;;;;21.09;65.68;100307.72;5003165;28;20022;-53
2023/07/24 08:14:24;;;;;;;3.58;2.63;;;;;;;21.08;65.10;100302.47;5002038;28;20045;-52
2023/07/24 08:16:50;;;;;;;3.00;2.63;;;;;;;21.07;65.38;100315.13;5002281;28;20033;-53
2023/07/24 08:19:15;;;;;;;3.38;2.65;;;;;;;21.08;64.77;100316.84;5003292;28;20494;-53
2023/07/24 08:21:41;;;;;;;2.88;2.60;;;;;;;21.08;64.55;100313.28;5001548;28;20049;-53
2023/07/24 08:24:07;;;;;;;4.03;2.50;;;;;;;21.07;64.78;100315.13;5001713;28;20041;-52
2023/07/24 08:26:32;;;;;;;3.60;2.95;;;;;;;21.07;64.72;100306.19;5001385;28;20058;-52
2023/07/24 08:28:58;;;;;;;3.25;2.33;;;;;;;21.06;64.11;100297.22;5001498;28;20030;-52
2023/07/24 08:31:23;;;;;;;3.20;2.78;;;;;;;21.06;64.49;100290.97;5000999;28;20022;-52
2023/07/24 08:33:48;;;;;;;5.00;2.55;;;;;;;21.06;64.02;100297.22;5003202;28;20064;-52
2023/07/24 08:36:14;;;;;;;2.60;2.40;;;;;;;21.05;64.41;100302.81;5001818;28;20132;-53
2023/07/24 08:38:40;;;;;;;2.92;2.50;;;;;;;21.05;64.31;100300.94;5001649;28;20402;-51
2023/07/24 08:41:12;;;;;;;3.72;2.38;;;;;;;21.06;64.08;100301.81;5001163;28;20457;-54
2023/07/24 08:43:42;;;;;;;3.70;2.65;;;;;;;21.04;64.19;100304.69;5001345;28;20400;-53
2023/07/24 08:46:09;;;;;;;2.65;2.42;;;;;;;21.04;63.57;100290.31;5000402;28;20060;-53
2023/07/24 08:48:39;;;;;;;3.00;2.70;;;;;;;21.03;63.61;100297.56;5000633;28;20033;-52
2023/07/24 08:51:07;;;;;;;3.17;2.47;;;;;;;21.03;64.00;100303.00;4997041;28;20030;-53
2023/07/24 08:53:35;;;;;;;3.50;3.00;;;;;;;21.04;63.38;100301.16;5000576;28;20441;-53
2023/07/24 08:56:05;;;;;;;2.60;2.40;;;;;;;21.03;63.82;100296.75;5000786;28;20041;-52
2023/07/24 08:58:30;;;;;;;2.80;2.53;;;;;;;21.03;63.54;100299.44;5001397;28;20080;-53
2023/07/24 09:00:57;;;;;;;3.72;2.88;;;;;;;21.03;63.63;100292.16;5001667;28;20045;-53
2023/07/24 09:03:22;;;;;;;3.33;2.95;;;;;;;21.04;63.67;100293.88;4997277;28;20034;-53
2023/07/24 09:05:48;;;;;;;3.50;2.65;;;;;;;21.04;63.51;100284.91;5001284;28;20060;-52
2023/07/24 09:08:13;;;;;;;3.08;2.78;;;;;;;21.05;63.30;100286.56;5000572;28;20041;-53
2023/07/24 09:10:42;;;;;;;2.83;2.55;;;;;;;21.04;63.05;100293.88;5000439;28;20033;-53
2023/07/24 09:13:11;;;;;;;2.90;2.60;;;;;;;21.04;63.31;100272.22;4995665;28;20468;-53
2023/07/24 09:15:44;;;;;;;3.03;2.72;;;;;;;21.05;63.33;100264.91;4999872;28;20035;-53
2023/07/24 09:18:10;;;;;;;2.95;2.50;;;;;;;21.04;63.50;100266.78;5000903;28;20042;-53
2023/07/24 09:20:43;;;;;;;2.92;2.40;;;;;;;21.05;62.93;100263.03;5000869;28;20033;-52
2023/07/24 09:23:10;;;;;;;2.95;2.60;;;;;;;21.05;63.37;100254.94;4999722;28;20042;-53
2023/07/24 09:25:39;;;;;;;3.47;2.50;;;;;;;21.04;63.34;100250.56;4962011;28;1117091;-52
2023/07/24 09:28:11;;;;;;;2.80;2.38;;;;;;;21.05;63.18;100257.63;5000402;28;20542;-49
2023/07/24 09:30:37;;;;;;;2.67;2.35;;;;;;;21.06;62.81;100259.34;5000477;28;20373;-53
2023/07/24 09:33:03;;;;;;;3.10;2.53;;;;;;;21.05;63.11;100246.81;4996420;28;20098;-53
2023/07/24 09:35:28;;;;;;;3.40;2.65;;;;;;;21.05;62.93;100241.38;4994286;28;20472;-53
2023/07/24 09:38:10;;;;;;;2.45;2.25;;;;;;;21.05;63.08;100238.69;4993497;28;20034;-53
2023/07/24 09:40:47;;;;;;;2.85;2.58;;;;;;;21.05;62.98;100241.38;4990961;28;20579;-51
2023/07/24 09:43:25;;;;;;;3.03;2.30;;;;;;;21.05;62.84;100235.97;4992943;28;20410;-53
2023/07/24 09:45:52;;;;;;;2.53;2.25;;;;;;;21.06;62.83;100223.31;4995159;28;20038;-51
2023/07/24 09:48:19;;;;;;;2.53;2.33;;;;;;;21.05;62.83;100203.50;4993469;28;20073;-53
2023/07/24 09:50:47;;;;;;;2.60;2.40;;;;;;;21.05;62.82;100205.38;4997727;28;20428;-52
2023/07/24 09:53:38;;;;;;;4.90;2.35;;;;;;;21.06;62.48;100205.19;4994763;28;20026;-53
2023/07/24 09:56:08;;;;;;;2.65;2.30;;;;;;;21.07;62.98;100208.75;4993953;28;20037;-53
2023/07/24 09:58:35;;;;;;;2.55;2.35;;;;;;;21.06;62.92;100207.91;4993709;28;20030;-53
2023/07/24 10:01:06;;;;;;;2.72;2.33;;;;;;;21.05;62.86;100208.91;4994226;28;20117;-53
2023/07/24 10:03:35;;;;;;;2.60;2.40;;;;;;;21.06;62.76;100204.38;4994971;28;20030;-53
2023/07/24 10:06:01;;;;;;;2.58;2.33;;;;;;;21.05;62.70;100198.09;4991305;28;20365;-53
2023/07/24 10:08:27;;;;;;;3.42;2.40;;;;;;;21.05;62.41;100189.97;4993089;28;20034;-53
2023/07/24 10:10:53;;;;;;;2.47;2.20;;;;;;;21.06;62.88;100194.38;4993606;28;20362;-52
2023/07/24 10:13:20;;;;;;;2.80;2.25;;;;;;;21.05;62.27;100203.50;4993838;28;20113;-52
2023/07/24 10:15:48;;;;;;;2.70;2.50;;;;;;;21.06;62.73;100209.78;4992237;28;20021;-52
2023/07/24 10:18:16;;;;;;;2.30;2.10;;;;;;;21.06;62.71;100221.44;4993348;28;20476;-51
2023/07/24 10:20:41;;;;;;;2.22;2.03;;;;;;;21.06;62.59;100224.16;4998333;28;20034;-52
2023/07/24 10:23:09;;;;;;;2.58;2.38;;;;;;;21.05;62.38;100222.44;4996838;28;20399;-53
2023/07/24 10:25:37;;;;;;;2.65;2.17;;;;;;;21.05;62.73;100230.56;4997537;28;20561;-53
2023/07/24 10:28:12;;;;;;;2.83;2.63;;;;;;;21.04;62.77;100234.31;4993620;28;20034;-52
2023/07/24 10:30:39;;;;;;;2.20;2.00;;;;;;;21.05;62.89;100235.97;4995402;28;20032;-53
2023/07/24 10:33:13;;;;;;;2.50;2.30;;;;;;;21.04;62.70;100245.13;4993567;28;20026;-52
2023/07/24 10:36:08;;;;;;;2.78;2.40;;;;;;;21.03;62.81;100243.44;4996471;28;20033;-52
2023/07/24 10:38:36;;;;;;;3.53;2.38;;;;;;;21.04;62.19;100239.72;4987883;28;20089;-51
2023/07/24 10:41:04;;;;;;;2.60;2.40;;;;;;;21.04;62.48;100233.47;4991287;28;20022;-52
2023/07/24 10:43:46;;;;;;;2.65;2.20;;;;;;;21.04;62.52;100234.31;4992963;28;20026;-53
2023/07/24 10:46:12;;;;;;;2.50;2.30;;;;;;;21.04;62.70;100228.91;4992228;28;20027;-51
2023/07/24 10:48:41;;;;;;;2.42;2.22;;;;;;;21.05;62.61;100235.16;4998183;28;20121;-52
2023/07/24 10:51:09;;;;;;;2.10;1.90;;;;;;;21.05;62.42;100246.81;4994993;28;20077;-52
2023/07/24 10:53:38;;;;;;;2.58;2.38;;;;;;;21.04;62.53;100255.97;4989501;28;20080;-52
2023/07/24 10:56:05;;;;;;;2.42;2.22;;;;;;;21.06;62.60;100264.75;4991847;28;20397;-50
2023/07/24 10:58:31;;;;;;;2.65;2.42;;;;;;;21.07;62.12;100255.59;4994669;28;20419;-50
2023/07/24 11:00:57;;;;;;;2.17;2.00;;;;;;;21.06;62.12;100253.09;4993009;28;20038;-52
2023/07/24 11:03:23;;;;;;;2.42;2.22;;;;;;;21.07;62.04;100266.41;4992269;28;20022;-52
2023/07/24 11:05:49;;;;;;;2.38;2.17;;;;;;;21.08;61.86;100259.16;4993697;28;20032;-51
2023/07/24 11:08:16;;;;;;;2.78;2.20;;;;;;;21.06;62.37;100253.91;4993014;28;20113;-52
2023/07/24 11:11:00;;;;;;;2.20;2.00;;;;;;;21.06;61.91;100248.50;4991143;28;20034;-52
2023/07/24 11:13:28;;;;;;;2.42;2.22;;;;;;;21.07;62.21;100257.47;4993472;28;20037;-52
2023/07/24 11:15:54;;;;;;;2.78;2.10;;;;;;;21.07;62.13;100249.34;4993361;28;20165;-49
2023/07/24 11:18:22;;;;;;;2.67;2.42;;;;;;;21.08;62.18;100256.44;4991666;28;20487;-52
2023/07/24 11:20:55;;;;;;;1.90;1.80;;;;;;;21.08;61.92;100264.56;4995479;28;20022;-52
2023/07/24 11:23:21;;;;;;;2.50;2.30;;;;;;;21.09;62.11;100260.81;4995699;28;20038;-51